sensor_id;sensor_type;location;lat;lon;timestamp;temperature;humidity
37530;DHT22;23374;52.758;6.872;2023-11-19T00:02:06;10.90;99.90
37530;DHT22;23374;52.758;6.872;2023-11-19T00:04:28;10.90;99.90
37530;DHT22;23374;52.758;6.872;2023-11-19T00:06:51;10.90;99.90
37530;DHT22;23374;52.758;6.872;2023-11-19T00:09:12;10.90;99.90
37530;DHT22;23374;52.758;6.872;2023-11-19T00:11:32;10.90;99.90
37530;DHT22;23374;52.758;6.872;2023-11-19T00:13:52;11.00;99.90
37530;DHT22;23374;52.758;6.872;2023-11-19T00:16:13;11.00;99.90
37530;DHT22;23374;52.758;6.872;2023-11-19T00:18:34;11.00;99.90
37530;DHT22;23374;52.758;6.872;2023-11-19T00:20:55;11.00;99.90
37530;DHT22;23374;52.758;6.872;2023-11-19T00:23:16;11.10;99.90
37530;DHT22;23374;52.758;6.872;2023-11-19T00:25:36;11.10;99.90
37530;DHT22;23374;52.758;6.872;2023-11-19T00:27:58;11.10;99.90
37530;DHT22;23374;52.758;6.872;2023-11-19T00:30:19;11.20;99.90
37530;DHT22;23374;52.758;6.872;2023-11-19T00:32:41;11.10;99.90
37530;DHT22;23374;52.758;6.872;2023-11-19T00:35:01;11.20;99.90
37530;DHT22;23374;52.758;6.872;2023-11-19T00:37:23;11.20;99.90
37530;DHT22;23374;52.758;6.872;2023-11-19T00:39:43;11.20;99.90
37530;DHT22;23374;52.758;6.872;2023-11-19T00:42:04;11.20;99.90
37530;DHT22;23374;52.758;6.872;2023-11-19T00:44:25;11.20;99.90
37530;DHT22;23374;52.758;6.872;2023-11-19T00:46:45;11.30;99.90
37530;DHT22;23374;52.758;6.872;2023-11-19T00:49:05;11.30;99.90
37530;DHT22;23374;52.758;6.872;2023-11-19T00:51:26;11.30;99.90
37530;DHT22;23374;52.758;6.872;2023-11-19T00:53:46;11.40;99.90
37530;DHT22;23374;52.758;6.872;2023-11-19T00:56:07;11.40;99.90
37530;DHT22;23374;52.758;6.872;2023-11-19T00:58:28;11.40;99.90
37530;DHT22;23374;52.758;6.872;2023-11-19T01:00:49;11.40;99.90
37530;DHT22;23374;52.758;6.872;2023-11-19T01:03:09;11.50;99.90
37530;DHT22;23374;52.758;6.872;2023-11-19T01:05:30;11.50;99.90
37530;DHT22;23374;52.758;6.872;2023-11-19T01:07:50;11.50;99.90
37530;DHT22;23374;52.758;6.872;2023-11-19T01:10:12;11.50;99.90
37530;DHT22;23374;52.758;6.872;2023-11-19T01:12:33;11.50;99.90
37530;DHT22;23374;52.758;6.872;2023-11-19T01:14:53;11.60;99.90
37530;DHT22;23374;52.758;6.872;2023-11-19T01:17:13;11.60;99.90
37530;DHT22;23374;52.758;6.872;2023-11-19T01:19:34;11.60;99.90
37530;DHT22;23374;52.758;6.872;2023-11-19T01:21:55;11.60;99.90
37530;DHT22;23374;52.758;6.872;2023-11-19T01:24:15;11.60;99.90
37530;DHT22;23374;52.758;6.872;2023-11-19T01:26:36;11.50;99.90
37530;DHT22;23374;52.758;6.872;2023-11-19T01:28:56;11.60;99.90
37530;DHT22;23374;52.758;6.872;2023-11-19T01:31:17;11.50;99.90
37530;DHT22;23374;52.758;6.872;2023-11-19T01:33:37;11.50;99.90
37530;DHT22;23374;52.758;6.872;2023-11-19T01:35:57;11.60;99.90
37530;DHT22;23374;52.758;6.872;2023-11-19T01:38:18;11.60;99.90
37530;DHT22;23374;52.758;6.872;2023-11-19T01:40:38;11.60;99.90
37530;DHT22;23374;52.758;6.872;2023-11-19T01:42:58;11.60;99.90
37530;DHT22;23374;52.758;6.872;2023-11-19T01:45:27;11.70;99.90
37530;DHT22;23374;52.758;6.872;2023-11-19T01:47:51;11.70;99.90
37530;DHT22;23374;52.758;6.872;2023-11-19T01:50:12;11.70;99.90
37530;DHT22;23374;52.758;6.872;2023-11-19T01:52:34;11.70;99.90
37530;DHT22;23374;52.758;6.872;2023-11-19T01:54:56;11.80;99.90
37530;DHT22;23374;52.758;6.872;2023-11-19T01:57:18;11.80;99.90
37530;DHT22;23374;52.758;6.872;2023-11-19T01:59:40;11.80;99.90
37530;DHT22;23374;52.758;6.872;2023-11-19T02:02:02;11.80;99.90
37530;DHT22;23374;52.758;6.872;2023-11-19T02:04:22;11.80;99.90
37530;DHT22;23374;52.758;6.872;2023-11-19T02:06:43;11.90;99.90
37530;DHT22;23374;52.758;6.872;2023-11-19T02:09:05;11.90;99.90
37530;DHT22;23374;52.758;6.872;2023-11-19T02:11:29;11.90;99.90
37530;DHT22;23374;52.758;6.872;2023-11-19T02:13:49;11.90;99.90
37530;DHT22;23374;52.758;6.872;2023-11-19T02:16:10;11.90;99.90
37530;DHT22;23374;52.758;6.872;2023-11-19T02:18:31;11.90;99.90
37530;DHT22;23374;52.758;6.872;2023-11-19T02:20:51;11.90;99.90
37530;DHT22;23374;52.758;6.872;2023-11-19T02:23:13;11.90;99.90
37530;DHT22;23374;52.758;6.872;2023-11-19T02:25:35;11.90;99.90
37530;DHT22;23374;52.758;6.872;2023-11-19T02:27:59;11.90;99.90
37530;DHT22;23374;52.758;6.872;2023-11-19T02:30:21;11.90;99.90
37530;DHT22;23374;52.758;6.872;2023-11-19T02:32:44;11.90;99.90
37530;DHT22;23374;52.758;6.872;2023-11-19T02:35:05;11.90;99.90
37530;DHT22;23374;52.758;6.872;2023-11-19T02:37:25;12.00;99.90
37530;DHT22;23374;52.758;6.872;2023-11-19T02:39:46;12.00;99.90
37530;DHT22;23374;52.758;6.872;2023-11-19T02:42:06;12.00;99.90
37530;DHT22;23374;52.758;6.872;2023-11-19T02:44:27;12.00;99.90
37530;DHT22;23374;52.758;6.872;2023-11-19T02:46:50;12.00;99.90
37530;DHT22;23374;52.758;6.872;2023-11-19T02:49:10;12.00;99.90
37530;DHT22;23374;52.758;6.872;2023-11-19T02:51:31;12.00;99.90
37530;DHT22;23374;52.758;6.872;2023-11-19T02:53:51;12.00;99.90
37530;DHT22;23374;52.758;6.872;2023-11-19T02:56:11;12.00;99.90
37530;DHT22;23374;52.758;6.872;2023-11-19T02:58:45;12.00;99.90
37530;DHT22;23374;52.758;6.872;2023-11-19T03:01:06;12.00;99.90
37530;DHT22;23374;52.758;6.872;2023-11-19T03:03:33;12.00;99.90
37530;DHT22;23374;52.758;6.872;2023-11-19T03:05:58;12.10;99.90
37530;DHT22;23374;52.758;6.872;2023-11-19T03:08:18;12.10;99.90
37530;DHT22;23374;52.758;6.872;2023-11-19T03:10:39;12.00;99.90
37530;DHT22;23374;52.758;6.872;2023-11-19T03:12:59;12.00;99.90
37530;DHT22;23374;52.758;6.872;2023-11-19T03:15:22;12.10;99.90
37530;DHT22;23374;52.758;6.872;2023-11-19T03:17:42;12.10;99.90
37530;DHT22;23374;52.758;6.872;2023-11-19T03:20:06;12.10;99.90
37530;DHT22;23374;52.758;6.872;2023-11-19T03:22:29;12.10;99.90
37530;DHT22;23374;52.758;6.872;2023-11-19T03:24:53;12.10;99.90
37530;DHT22;23374;52.758;6.872;2023-11-19T03:27:13;12.30;99.90
37530;DHT22;23374;52.758;6.872;2023-11-19T03:29:34;12.20;99.90
37530;DHT22;23374;52.758;6.872;2023-11-19T03:31:54;12.30;99.90
37530;DHT22;23374;52.758;6.872;2023-11-19T03:34:14;12.30;99.90
37530;DHT22;23374;52.758;6.872;2023-11-19T03:36:35;12.30;99.90
37530;DHT22;23374;52.758;6.872;2023-11-19T03:38:55;12.30;99.90
37530;DHT22;23374;52.758;6.872;2023-11-19T03:41:16;12.40;99.90
37530;DHT22;23374;52.758;6.872;2023-11-19T03:43:37;12.40;92.90
37530;DHT22;23374;52.758;6.872;2023-11-19T03:45:57;12.30;51.70
37530;DHT22;23374;52.758;6.872;2023-11-19T03:48:17;12.30;34.10
37530;DHT22;23374;52.758;6.872;2023-11-19T03:50:38;12.30;15.70
37530;DHT22;23374;52.758;6.872;2023-11-19T03:52:59;12.30;12.40
37530;DHT22;23374;52.758;6.872;2023-11-19T03:55:19;12.30;1.00
37530;DHT22;23374;52.758;6.872;2023-11-19T03:57:39;12.30;1.00
37530;DHT22;23374;52.758;6.872;2023-11-19T04:00:00;12.30;1.00
37530;DHT22;23374;52.758;6.872;2023-11-19T04:02:22;12.30;1.00
37530;DHT22;23374;52.758;6.872;2023-11-19T04:04:42;12.30;1.00
37530;DHT22;23374;52.758;6.872;2023-11-19T04:07:02;12.30;1.00
37530;DHT22;23374;52.758;6.872;2023-11-19T04:09:23;12.30;1.00
37530;DHT22;23374;52.758;6.872;2023-11-19T04:11:43;12.30;1.00
37530;DHT22;23374;52.758;6.872;2023-11-19T04:14:07;12.30;1.00
37530;DHT22;23374;52.758;6.872;2023-11-19T04:16:28;12.30;1.00
37530;DHT22;23374;52.758;6.872;2023-11-19T04:18:48;12.30;1.00
37530;DHT22;23374;52.758;6.872;2023-11-19T04:21:09;12.30;1.00
37530;DHT22;23374;52.758;6.872;2023-11-19T04:23:29;12.30;1.00
37530;DHT22;23374;52.758;6.872;2023-11-19T04:25:49;12.20;1.00
37530;DHT22;23374;52.758;6.872;2023-11-19T04:28:10;12.20;1.00
37530;DHT22;23374;52.758;6.872;2023-11-19T04:30:31;12.20;1.00
37530;DHT22;23374;52.758;6.872;2023-11-19T04:32:52;12.20;99.90
37530;DHT22;23374;52.758;6.872;2023-11-19T04:35:12;12.20;99.90
37530;DHT22;23374;52.758;6.872;2023-11-19T04:37:32;12.10;99.90
37530;DHT22;23374;52.758;6.872;2023-11-19T04:39:53;12.10;99.90
37530;DHT22;23374;52.758;6.872;2023-11-19T04:42:13;12.20;99.90
37530;DHT22;23374;52.758;6.872;2023-11-19T04:44:37;12.20;99.90
37530;DHT22;23374;52.758;6.872;2023-11-19T04:46:57;12.20;99.90
37530;DHT22;23374;52.758;6.872;2023-11-19T04:49:18;12.20;99.90
37530;DHT22;23374;52.758;6.872;2023-11-19T04:51:42;12.20;99.90
37530;DHT22;23374;52.758;6.872;2023-11-19T04:54:03;12.20;99.90
37530;DHT22;23374;52.758;6.872;2023-11-19T04:56:24;12.30;99.90
37530;DHT22;23374;52.758;6.872;2023-11-19T04:58:44;12.30;99.90
37530;DHT22;23374;52.758;6.872;2023-11-19T05:01:05;12.30;99.90
37530;DHT22;23374;52.758;6.872;2023-11-19T05:03:26;12.30;99.90
37530;DHT22;23374;52.758;6.872;2023-11-19T05:05:47;12.30;99.90
37530;DHT22;23374;52.758;6.872;2023-11-19T05:08:07;12.20;99.90
37530;DHT22;23374;52.758;6.872;2023-11-19T05:10:30;12.20;99.90
37530;DHT22;23374;52.758;6.872;2023-11-19T05:12:52;12.20;99.90
37530;DHT22;23374;52.758;6.872;2023-11-19T05:15:12;12.10;99.90
37530;DHT22;23374;52.758;6.872;2023-11-19T05:17:33;12.10;99.90
37530;DHT22;23374;52.758;6.872;2023-11-19T05:19:53;12.10;99.90
37530;DHT22;23374;52.758;6.872;2023-11-19T05:22:13;12.10;99.90
37530;DHT22;23374;52.758;6.872;2023-11-19T05:24:33;12.10;99.90
37530;DHT22;23374;52.758;6.872;2023-11-19T05:26:54;12.10;99.90
37530;DHT22;23374;52.758;6.872;2023-11-19T05:29:14;12.10;99.90
37530;DHT22;23374;52.758;6.872;2023-11-19T05:31:35;12.10;99.90
37530;DHT22;23374;52.758;6.872;2023-11-19T05:33:55;12.10;99.90
37530;DHT22;23374;52.758;6.872;2023-11-19T05:36:15;12.10;91.60
37530;DHT22;23374;52.758;6.872;2023-11-19T05:38:36;12.00;48.60
37530;DHT22;23374;52.758;6.872;2023-11-19T05:40:59;12.10;99.30
37530;DHT22;23374;52.758;6.872;2023-11-19T05:43:19;12.10;1.00
37530;DHT22;23374;52.758;6.872;2023-11-19T05:45:40;12.10;1.00
37530;DHT22;23374;52.758;6.872;2023-11-19T05:48:00;12.10;1.00
37530;DHT22;23374;52.758;6.872;2023-11-19T05:50:20;12.10;1.00
37530;DHT22;23374;52.758;6.872;2023-11-19T05:52:41;12.10;1.00
37530;DHT22;23374;52.758;6.872;2023-11-19T05:55:02;12.10;1.00
37530;DHT22;23374;52.758;6.872;2023-11-19T05:57:29;12.10;1.00
37530;DHT22;23374;52.758;6.872;2023-11-19T05:59:50;12.10;1.00
37530;DHT22;23374;52.758;6.872;2023-11-19T06:03:45;12.00;1.00
37530;DHT22;23374;52.758;6.872;2023-11-19T06:06:09;12.10;1.00
37530;DHT22;23374;52.758;6.872;2023-11-19T06:08:30;12.10;1.00
37530;DHT22;23374;52.758;6.872;2023-11-19T06:10:51;12.10;1.00
37530;DHT22;23374;52.758;6.872;2023-11-19T06:13:15;12.10;1.00
37530;DHT22;23374;52.758;6.872;2023-11-19T06:15:36;12.10;1.00
37530;DHT22;23374;52.758;6.872;2023-11-19T06:17:56;12.10;99.90
37530;DHT22;23374;52.758;6.872;2023-11-19T06:20:19;12.10;99.90
37530;DHT22;23374;52.758;6.872;2023-11-19T06:22:40;12.00;99.90
37530;DHT22;23374;52.758;6.872;2023-11-19T06:25:04;12.00;99.90
37530;DHT22;23374;52.758;6.872;2023-11-19T06:27:27;12.00;99.90
37530;DHT22;23374;52.758;6.872;2023-11-19T06:29:47;12.00;99.90
37530;DHT22;23374;52.758;6.872;2023-11-19T06:32:08;12.00;99.90
37530;DHT22;23374;52.758;6.872;2023-11-19T06:34:28;12.00;99.90
37530;DHT22;23374;52.758;6.872;2023-11-19T06:36:48;12.00;99.90
37530;DHT22;23374;52.758;6.872;2023-11-19T06:39:09;12.00;99.90
37530;DHT22;23374;52.758;6.872;2023-11-19T06:41:30;12.00;99.90
37530;DHT22;23374;52.758;6.872;2023-11-19T06:43:51;12.00;99.90
37530;DHT22;23374;52.758;6.872;2023-11-19T06:46:19;11.90;90.70
37530;DHT22;23374;52.758;6.872;2023-11-19T06:48:39;12.00;99.90
37530;DHT22;23374;52.758;6.872;2023-11-19T06:51:00;12.00;89.80
37530;DHT22;23374;52.758;6.872;2023-11-19T06:53:21;12.00;22.00
37530;DHT22;23374;52.758;6.872;2023-11-19T06:55:41;12.00;82.20
37530;DHT22;23374;52.758;6.872;2023-11-19T06:58:02;11.90;1.00
37530;DHT22;23374;52.758;6.872;2023-11-19T07:00:25;11.90;1.00
37530;DHT22;23374;52.758;6.872;2023-11-19T07:02:45;11.90;1.00
37530;DHT22;23374;52.758;6.872;2023-11-19T07:05:06;11.90;1.00
37530;DHT22;23374;52.758;6.872;2023-11-19T07:07:28;11.90;1.00
37530;DHT22;23374;52.758;6.872;2023-11-19T07:09:48;11.90;1.00
37530;DHT22;23374;52.758;6.872;2023-11-19T07:12:09;11.90;38.00
37530;DHT22;23374;52.758;6.872;2023-11-19T07:14:29;11.90;52.80
37530;DHT22;23374;52.758;6.872;2023-11-19T07:16:49;11.80;84.00
37530;DHT22;23374;52.758;6.872;2023-11-19T07:19:10;11.80;81.00
37530;DHT22;23374;52.758;6.872;2023-11-19T07:21:30;11.80;80.30
37530;DHT22;23374;52.758;6.872;2023-11-19T07:23:51;11.80;99.90
37530;DHT22;23374;52.758;6.872;2023-11-19T07:26:11;11.70;99.90
37530;DHT22;23374;52.758;6.872;2023-11-19T07:28:32;11.70;99.90
37530;DHT22;23374;52.758;6.872;2023-11-19T07:30:52;11.70;99.90
37530;DHT22;23374;52.758;6.872;2023-11-19T07:33:13;11.60;99.90
37530;DHT22;23374;52.758;6.872;2023-11-19T07:35:34;11.60;84.20
37530;DHT22;23374;52.758;6.872;2023-11-19T07:37:54;11.60;51.00
37530;DHT22;23374;52.758;6.872;2023-11-19T07:40:14;11.60;88.90
37530;DHT22;23374;52.758;6.872;2023-11-19T07:42:35;11.70;99.90
37530;DHT22;23374;52.758;6.872;2023-11-19T07:44:56;11.60;99.90
37530;DHT22;23374;52.758;6.872;2023-11-19T07:47:17;11.60;99.90
37530;DHT22;23374;52.758;6.872;2023-11-19T07:49:38;11.60;99.90
37530;DHT22;23374;52.758;6.872;2023-11-19T07:51:59;11.60;99.90
37530;DHT22;23374;52.758;6.872;2023-11-19T07:54:19;11.60;99.90
37530;DHT22;23374;52.758;6.872;2023-11-19T07:56:41;11.60;99.90
37530;DHT22;23374;52.758;6.872;2023-11-19T07:59:03;11.70;99.90
37530;DHT22;23374;52.758;6.872;2023-11-19T08:01:23;11.70;99.90
37530;DHT22;23374;52.758;6.872;2023-11-19T08:03:43;11.70;99.90
37530;DHT22;23374;52.758;6.872;2023-11-19T08:06:04;11.70;99.90
37530;DHT22;23374;52.758;6.872;2023-11-19T08:08:25;11.70;24.70
37530;DHT22;23374;52.758;6.872;2023-11-19T08:10:45;11.70;1.00
37530;DHT22;23374;52.758;6.872;2023-11-19T08:13:07;11.70;1.00
37530;DHT22;23374;52.758;6.872;2023-11-19T08:15:27;11.70;1.00
37530;DHT22;23374;52.758;6.872;2023-11-19T08:17:48;11.80;2.40
37530;DHT22;23374;52.758;6.872;2023-11-19T08:20:09;11.70;1.00
37530;DHT22;23374;52.758;6.872;2023-11-19T08:22:32;11.80;1.00
37530;DHT22;23374;52.758;6.872;2023-11-19T08:24:52;11.80;1.00
37530;DHT22;23374;52.758;6.872;2023-11-19T08:27:13;11.80;1.00
37530;DHT22;23374;52.758;6.872;2023-11-19T08:29:33;11.80;1.00
37530;DHT22;23374;52.758;6.872;2023-11-19T08:31:54;11.80;1.00
37530;DHT22;23374;52.758;6.872;2023-11-19T08:34:15;11.80;1.00
37530;DHT22;23374;52.758;6.872;2023-11-19T08:36:35;11.80;1.00
37530;DHT22;23374;52.758;6.872;2023-11-19T08:38:55;11.80;1.00
37530;DHT22;23374;52.758;6.872;2023-11-19T08:41:16;11.80;1.00
37530;DHT22;23374;52.758;6.872;2023-11-19T08:43:37;11.80;1.00
37530;DHT22;23374;52.758;6.872;2023-11-19T08:45:59;11.80;1.00
37530;DHT22;23374;52.758;6.872;2023-11-19T08:48:19;11.80;1.00
37530;DHT22;23374;52.758;6.872;2023-11-19T08:50:39;11.80;1.00
37530;DHT22;23374;52.758;6.872;2023-11-19T08:53:00;11.80;1.00
37530;DHT22;23374;52.758;6.872;2023-11-19T08:55:20;11.80;1.00
37530;DHT22;23374;52.758;6.872;2023-11-19T08:57:41;11.80;1.00
37530;DHT22;23374;52.758;6.872;2023-11-19T09:00:02;11.80;1.00
37530;DHT22;23374;52.758;6.872;2023-11-19T09:02:27;11.80;90.50
37530;DHT22;23374;52.758;6.872;2023-11-19T09:04:48;11.70;99.90
37530;DHT22;23374;52.758;6.872;2023-11-19T09:07:08;11.70;99.90
37530;DHT22;23374;52.758;6.872;2023-11-19T09:09:33;11.60;1.00
37530;DHT22;23374;52.758;6.872;2023-11-19T09:11:56;11.50;1.00
37530;DHT22;23374;52.758;6.872;2023-11-19T09:14:16;11.50;1.00
37530;DHT22;23374;52.758;6.872;2023-11-19T09:16:38;11.50;1.00
37530;DHT22;23374;52.758;6.872;2023-11-19T09:18:59;11.50;1.00
37530;DHT22;23374;52.758;6.872;2023-11-19T09:21:20;11.50;5.70
37530;DHT22;23374;52.758;6.872;2023-11-19T09:23:40;11.50;1.00
37530;DHT22;23374;52.758;6.872;2023-11-19T09:26:01;11.50;5.90
37530;DHT22;23374;52.758;6.872;2023-11-19T09:28:22;11.60;1.00
37530;DHT22;23374;52.758;6.872;2023-11-19T09:30:42;11.60;1.00
37530;DHT22;23374;52.758;6.872;2023-11-19T09:33:02;11.60;1.00
37530;DHT22;23374;52.758;6.872;2023-11-19T09:35:23;11.70;1.00
37530;DHT22;23374;52.758;6.872;2023-11-19T09:37:43;11.70;1.00
37530;DHT22;23374;52.758;6.872;2023-11-19T09:40:06;11.70;1.00
37530;DHT22;23374;52.758;6.872;2023-11-19T09:42:31;11.70;1.00
37530;DHT22;23374;52.758;6.872;2023-11-19T09:44:59;11.70;1.00
37530;DHT22;23374;52.758;6.872;2023-11-19T09:47:20;11.70;1.00
37530;DHT22;23374;52.758;6.872;2023-11-19T09:49:41;11.80;1.00
37530;DHT22;23374;52.758;6.872;2023-11-19T09:52:02;11.80;99.90
37530;DHT22;23374;52.758;6.872;2023-11-19T09:54:23;11.80;99.90
37530;DHT22;23374;52.758;6.872;2023-11-19T09:56:43;11.90;99.90
37530;DHT22;23374;52.758;6.872;2023-11-19T09:59:05;11.90;99.90
37530;DHT22;23374;52.758;6.872;2023-11-19T10:01:25;12.00;99.90
37530;DHT22;23374;52.758;6.872;2023-11-19T10:03:47;12.10;99.90
37530;DHT22;23374;52.758;6.872;2023-11-19T10:06:08;12.10;99.90
37530;DHT22;23374;52.758;6.872;2023-11-19T10:08:29;12.20;93.90
37530;DHT22;23374;52.758;6.872;2023-11-19T10:10:49;12.20;1.00
37530;DHT22;23374;52.758;6.872;2023-11-19T10:13:11;12.30;1.00
37530;DHT22;23374;52.758;6.872;2023-11-19T10:15:37;12.30;1.00
37530;DHT22;23374;52.758;6.872;2023-11-19T10:17:57;12.30;1.00
37530;DHT22;23374;52.758;6.872;2023-11-19T10:20:17;12.30;1.00
37530;DHT22;23374;52.758;6.872;2023-11-19T10:22:38;12.30;1.00
37530;DHT22;23374;52.758;6.872;2023-11-19T10:24:59;12.20;1.00
37530;DHT22;23374;52.758;6.872;2023-11-19T10:27:24;12.20;1.00
37530;DHT22;23374;52.758;6.872;2023-11-19T10:29:47;12.10;1.00
37530;DHT22;23374;52.758;6.872;2023-11-19T10:32:09;12.20;1.00
37530;DHT22;23374;52.758;6.872;2023-11-19T10:34:30;12.20;1.00
37530;DHT22;23374;52.758;6.872;2023-11-19T10:36:50;12.10;1.00
37530;DHT22;23374;52.758;6.872;2023-11-19T10:39:12;12.10;1.00
37530;DHT22;23374;52.758;6.872;2023-11-19T10:41:33;12.10;67.20
37530;DHT22;23374;52.758;6.872;2023-11-19T10:43:58;12.10;99.90
37530;DHT22;23374;52.758;6.872;2023-11-19T10:46:19;12.00;99.90
37530;DHT22;23374;52.758;6.872;2023-11-19T10:48:44;12.00;99.90
37530;DHT22;23374;52.758;6.872;2023-11-19T10:51:08;12.00;99.90
37530;DHT22;23374;52.758;6.872;2023-11-19T10:53:28;12.00;99.90
37530;DHT22;23374;52.758;6.872;2023-11-19T10:55:50;12.00;99.90
37530;DHT22;23374;52.758;6.872;2023-11-19T10:58:12;12.00;99.90
37530;DHT22;23374;52.758;6.872;2023-11-19T11:00:52;12.00;99.90
37530;DHT22;23374;52.758;6.872;2023-11-19T11:03:20;12.10;99.90
37530;DHT22;23374;52.758;6.872;2023-11-19T11:05:42;12.10;99.90
37530;DHT22;23374;52.758;6.872;2023-11-19T11:08:06;12.10;43.00
37530;DHT22;23374;52.758;6.872;2023-11-19T11:10:28;12.10;1.00
37530;DHT22;23374;52.758;6.872;2023-11-19T11:12:53;12.20;1.00
37530;DHT22;23374;52.758;6.872;2023-11-19T11:15:20;12.30;1.00
37530;DHT22;23374;52.758;6.872;2023-11-19T11:17:44;12.30;99.90
37530;DHT22;23374;52.758;6.872;2023-11-19T11:20:08;12.30;1.00
37530;DHT22;23374;52.758;6.872;2023-11-19T11:22:34;12.40;99.90
37530;DHT22;23374;52.758;6.872;2023-11-19T11:25:47;12.40;1.00
37530;DHT22;23374;52.758;6.872;2023-11-19T11:28:52;12.50;99.90
37530;DHT22;23374;52.758;6.872;2023-11-19T11:36:02;12.60;99.90
37530;DHT22;23374;52.758;6.872;2023-11-19T11:38:28;12.60;1.00
37530;DHT22;23374;52.758;6.872;2023-11-19T11:41:24;12.70;99.90
37530;DHT22;23374;52.758;6.872;2023-11-19T11:43:50;12.60;1.00
37530;DHT22;23374;52.758;6.872;2023-11-19T11:46:54;12.50;1.00
37530;DHT22;23374;52.758;6.872;2023-11-19T11:49:25;12.50;1.00
37530;DHT22;23374;52.758;6.872;2023-11-19T11:52:08;12.60;92.50
37530;DHT22;23374;52.758;6.872;2023-11-19T11:54:36;12.50;1.00
37530;DHT22;23374;52.758;6.872;2023-11-19T11:57:11;12.50;99.90
37530;DHT22;23374;52.758;6.872;2023-11-19T12:00:12;12.50;99.90
37530;DHT22;23374;52.758;6.872;2023-11-19T12:02:41;12.40;99.90
37530;DHT22;23374;52.758;6.872;2023-11-19T12:05:06;12.30;99.90
37530;DHT22;23374;52.758;6.872;2023-11-19T12:07:30;12.30;1.00
37530;DHT22;23374;52.758;6.872;2023-11-19T12:10:13;12.30;1.00
37530;DHT22;23374;52.758;6.872;2023-11-19T12:12:36;12.20;1.00
37530;DHT22;23374;52.758;6.872;2023-11-19T12:15:05;12.10;99.90
37530;DHT22;23374;52.758;6.872;2023-11-19T12:17:43;12.00;99.90
37530;DHT22;23374;52.758;6.872;2023-11-19T12:20:07;12.00;1.00
37530;DHT22;23374;52.758;6.872;2023-11-19T12:22:31;11.90;1.00
37530;DHT22;23374;52.758;6.872;2023-11-19T12:24:54;11.90;1.00
37530;DHT22;23374;52.758;6.872;2023-11-19T12:27:14;11.90;1.00
37530;DHT22;23374;52.758;6.872;2023-11-19T12:29:43;12.00;1.00
37530;DHT22;23374;52.758;6.872;2023-11-19T12:32:05;12.00;1.00
37530;DHT22;23374;52.758;6.872;2023-11-19T12:34:31;12.00;1.00
37530;DHT22;23374;52.758;6.872;2023-11-19T12:36:52;12.00;1.00
37530;DHT22;23374;52.758;6.872;2023-11-19T12:39:13;12.10;1.00
37530;DHT22;23374;52.758;6.872;2023-11-19T12:41:49;12.10;60.10
37530;DHT22;23374;52.758;6.872;2023-11-19T12:44:11;12.10;99.90
37530;DHT22;23374;52.758;6.872;2023-11-19T12:46:32;12.20;99.90
37530;DHT22;23374;52.758;6.872;2023-11-19T12:48:52;12.20;1.00
37530;DHT22;23374;52.758;6.872;2023-11-19T12:51:13;12.30;1.00
37530;DHT22;23374;52.758;6.872;2023-11-19T12:53:48;12.30;1.00
37530;DHT22;23374;52.758;6.872;2023-11-19T12:56:14;12.30;1.00
37530;DHT22;23374;52.758;6.872;2023-11-19T12:58:36;12.40;1.00
37530;DHT22;23374;52.758;6.872;2023-11-19T13:01:03;12.40;1.00
37530;DHT22;23374;52.758;6.872;2023-11-19T13:03:36;12.40;99.90
37530;DHT22;23374;52.758;6.872;2023-11-19T13:06:12;12.50;99.90
37530;DHT22;23374;52.758;6.872;2023-11-19T13:08:40;12.50;99.90
37530;DHT22;23374;52.758;6.872;2023-11-19T13:11:01;12.50;99.90
37530;DHT22;23374;52.758;6.872;2023-11-19T13:13:21;12.50;71.00
37530;DHT22;23374;52.758;6.872;2023-11-19T13:15:42;12.50;72.00
37530;DHT22;23374;52.758;6.872;2023-11-19T13:18:05;12.50;11.80
37530;DHT22;23374;52.758;6.872;2023-11-19T13:20:27;12.40;99.90
37530;DHT22;23374;52.758;6.872;2023-11-19T13:23:02;12.40;99.90
37530;DHT22;23374;52.758;6.872;2023-11-19T13:25:22;12.40;99.90
37530;DHT22;23374;52.758;6.872;2023-11-19T13:27:46;12.30;99.90
37530;DHT22;23374;52.758;6.872;2023-11-19T13:30:08;12.30;99.90
37530;DHT22;23374;52.758;6.872;2023-11-19T13:32:28;12.20;99.90
37530;DHT22;23374;52.758;6.872;2023-11-19T13:34:48;12.10;99.90
37530;DHT22;23374;52.758;6.872;2023-11-19T13:37:08;12.10;99.90
37530;DHT22;23374;52.758;6.872;2023-11-19T13:39:29;12.10;99.90
37530;DHT22;23374;52.758;6.872;2023-11-19T13:41:49;12.20;99.90
37530;DHT22;23374;52.758;6.872;2023-11-19T13:44:10;12.10;1.00
37530;DHT22;23374;52.758;6.872;2023-11-19T13:46:30;12.10;1.00
37530;DHT22;23374;52.758;6.872;2023-11-19T13:48:51;12.10;1.00
37530;DHT22;23374;52.758;6.872;2023-11-19T13:51:11;12.10;99.90
37530;DHT22;23374;52.758;6.872;2023-11-19T13:53:32;12.10;99.90
37530;DHT22;23374;52.758;6.872;2023-11-19T13:55:53;12.10;1.00
37530;DHT22;23374;52.758;6.872;2023-11-19T13:58:13;12.00;1.00
37530;DHT22;23374;52.758;6.872;2023-11-19T14:00:33;12.00;1.00
37530;DHT22;23374;52.758;6.872;2023-11-19T14:02:54;12.00;1.00
37530;DHT22;23374;52.758;6.872;2023-11-19T14:05:15;11.90;1.00
37530;DHT22;23374;52.758;6.872;2023-11-19T14:07:38;11.80;1.00
37530;DHT22;23374;52.758;6.872;2023-11-19T14:09:58;11.90;1.00
37530;DHT22;23374;52.758;6.872;2023-11-19T14:12:21;11.80;1.00
37530;DHT22;23374;52.758;6.872;2023-11-19T14:14:41;11.80;1.00
37530;DHT22;23374;52.758;6.872;2023-11-19T14:17:02;11.80;1.00
37530;DHT22;23374;52.758;6.872;2023-11-19T14:19:23;11.70;1.00
37530;DHT22;23374;52.758;6.872;2023-11-19T14:21:44;11.70;1.00
37530;DHT22;23374;52.758;6.872;2023-11-19T14:24:06;11.70;1.00
37530;DHT22;23374;52.758;6.872;2023-11-19T14:26:26;11.70;1.00
37530;DHT22;23374;52.758;6.872;2023-11-19T14:28:47;11.70;1.00
37530;DHT22;23374;52.758;6.872;2023-11-19T14:31:07;11.60;1.00
37530;DHT22;23374;52.758;6.872;2023-11-19T14:33:27;11.60;1.00
37530;DHT22;23374;52.758;6.872;2023-11-19T14:35:48;11.60;1.00
37530;DHT22;23374;52.758;6.872;2023-11-19T14:38:08;11.60;3.40
37530;DHT22;23374;52.758;6.872;2023-11-19T14:40:29;11.60;33.10
37530;DHT22;23374;52.758;6.872;2023-11-19T14:42:50;11.60;66.50
37530;DHT22;23374;52.758;6.872;2023-11-19T14:45:11;11.60;99.90
37530;DHT22;23374;52.758;6.872;2023-11-19T14:47:32;11.50;99.90
37530;DHT22;23374;52.758;6.872;2023-11-19T14:49:53;11.50;99.90
37530;DHT22;23374;52.758;6.872;2023-11-19T14:52:14;11.50;99.90
37530;DHT22;23374;52.758;6.872;2023-11-19T14:54:34;11.50;99.90
37530;DHT22;23374;52.758;6.872;2023-11-19T14:56:55;11.50;99.90
37530;DHT22;23374;52.758;6.872;2023-11-19T14:59:15;11.40;99.90
37530;DHT22;23374;52.758;6.872;2023-11-19T15:01:36;11.50;99.90
37530;DHT22;23374;52.758;6.872;2023-11-19T15:03:57;11.50;99.90
37530;DHT22;23374;52.758;6.872;2023-11-19T15:06:17;11.40;99.90
37530;DHT22;23374;52.758;6.872;2023-11-19T15:08:39;11.40;99.90
37530;DHT22;23374;52.758;6.872;2023-11-19T15:11:00;11.40;99.90
37530;DHT22;23374;52.758;6.872;2023-11-19T15:13:22;11.40;99.90